sensor_id;sensor_type;location;lat;lon;timestamp;temperature;humidity
44900;DHT22;30628;51.188;6.770;2022-10-16T00:01:06;15.00;99.90
44900;DHT22;30628;51.188;6.770;2022-10-16T00:03:32;15.10;99.90
44900;DHT22;30628;51.188;6.770;2022-10-16T00:06:00;15.00;99.90
44900;DHT22;30628;51.188;6.770;2022-10-16T00:08:26;15.50;99.90
44900;DHT22;30628;51.188;6.770;2022-10-16T00:10:57;15.10;99.90
44900;DHT22;30628;51.188;6.770;2022-10-16T00:13:24;15.10;99.90
44900;DHT22;30628;51.188;6.770;2022-10-16T00:15:50;15.10;99.90
44900;DHT22;30628;51.188;6.770;2022-10-16T00:18:16;15.10;99.90
44900;DHT22;30628;51.188;6.770;2022-10-16T00:20:42;15.10;99.90
44900;DHT22;30628;51.188;6.770;2022-10-16T00:23:08;15.10;99.90
44900;DHT22;30628;51.188;6.770;2022-10-16T00:25:36;15.00;99.90
44900;DHT22;30628;51.188;6.770;2022-10-16T00:28:02;15.40;99.90
44900;DHT22;30628;51.188;6.770;2022-10-16T00:30:28;15.10;99.90
44900;DHT22;30628;51.188;6.770;2022-10-16T00:32:57;15.00;99.90
44900;DHT22;30628;51.188;6.770;2022-10-16T00:35:23;15.00;99.90
44900;DHT22;30628;51.188;6.770;2022-10-16T00:37:50;15.00;99.90
44900;DHT22;30628;51.188;6.770;2022-10-16T00:40:16;15.10;99.90
44900;DHT22;30628;51.188;6.770;2022-10-16T00:42:43;15.00;99.90
44900;DHT22;30628;51.188;6.770;2022-10-16T00:45:09;15.00;99.90
44900;DHT22;30628;51.188;6.770;2022-10-16T00:47:43;15.00;99.90
44900;DHT22;30628;51.188;6.770;2022-10-16T00:50:28;15.00;99.90
44900;DHT22;30628;51.188;6.770;2022-10-16T00:52:56;15.00;99.90
44900;DHT22;30628;51.188;6.770;2022-10-16T00:55:23;15.00;99.90
44900;DHT22;30628;51.188;6.770;2022-10-16T00:57:50;14.90;99.90
44900;DHT22;30628;51.188;6.770;2022-10-16T01:00:20;14.90;99.90
44900;DHT22;30628;51.188;6.770;2022-10-16T01:02:58;14.90;99.90
44900;DHT22;30628;51.188;6.770;2022-10-16T01:05:48;14.90;99.90
44900;DHT22;30628;51.188;6.770;2022-10-16T01:08:39;14.90;99.90
44900;DHT22;30628;51.188;6.770;2022-10-16T01:11:27;14.90;99.90
44900;DHT22;30628;51.188;6.770;2022-10-16T01:13:59;14.80;99.90
44900;DHT22;30628;51.188;6.770;2022-10-16T01:16:45;14.70;99.90
44900;DHT22;30628;51.188;6.770;2022-10-16T01:21:56;14.70;99.90
44900;DHT22;30628;51.188;6.770;2022-10-16T01:24:40;14.70;99.90
44900;DHT22;30628;51.188;6.770;2022-10-16T01:27:21;14.70;99.90
44900;DHT22;30628;51.188;6.770;2022-10-16T01:29:49;14.70;99.90
44900;DHT22;30628;51.188;6.770;2022-10-16T01:34:54;14.60;99.90
44900;DHT22;30628;51.188;6.770;2022-10-16T01:37:35;14.60;99.90
44900;DHT22;30628;51.188;6.770;2022-10-16T01:40:06;14.60;99.90
44900;DHT22;30628;51.188;6.770;2022-10-16T01:42:37;14.60;99.90
44900;DHT22;30628;51.188;6.770;2022-10-16T01:45:05;14.50;99.90
44900;DHT22;30628;51.188;6.770;2022-10-16T01:47:35;14.50;99.90
44900;DHT22;30628;51.188;6.770;2022-10-16T01:50:03;14.50;99.90
44900;DHT22;30628;51.188;6.770;2022-10-16T01:52:32;14.40;99.90
44900;DHT22;30628;51.188;6.770;2022-10-16T01:55:02;14.40;99.90
44900;DHT22;30628;51.188;6.770;2022-10-16T01:57:29;14.50;99.90
44900;DHT22;30628;51.188;6.770;2022-10-16T02:00:03;14.40;99.90
44900;DHT22;30628;51.188;6.770;2022-10-16T02:02:30;14.50;99.90
44900;DHT22;30628;51.188;6.770;2022-10-16T02:05:01;14.50;99.90
44900;DHT22;30628;51.188;6.770;2022-10-16T02:07:30;14.60;99.90
44900;DHT22;30628;51.188;6.770;2022-10-16T02:09:56;14.60;99.90
44900;DHT22;30628;51.188;6.770;2022-10-16T02:12:28;14.90;99.90
44900;DHT22;30628;51.188;6.770;2022-10-16T02:14:56;14.60;99.90
44900;DHT22;30628;51.188;6.770;2022-10-16T02:17:23;14.60;99.90
44900;DHT22;30628;51.188;6.770;2022-10-16T02:19:51;15.00;99.90
44900;DHT22;30628;51.188;6.770;2022-10-16T02:22:30;14.70;99.90
44900;DHT22;30628;51.188;6.770;2022-10-16T02:30:32;14.70;99.90
44900;DHT22;30628;51.188;6.770;2022-10-16T02:33:02;14.70;99.90
44900;DHT22;30628;51.188;6.770;2022-10-16T02:35:30;14.70;99.90
44900;DHT22;30628;51.188;6.770;2022-10-16T02:37:57;14.80;99.90
44900;DHT22;30628;51.188;6.770;2022-10-16T02:40:25;14.70;99.90
44900;DHT22;30628;51.188;6.770;2022-10-16T02:42:53;14.70;99.90
44900;DHT22;30628;51.188;6.770;2022-10-16T02:45:20;14.80;99.90
44900;DHT22;30628;51.188;6.770;2022-10-16T02:47:47;14.80;99.90
44900;DHT22;30628;51.188;6.770;2022-10-16T02:50:13;14.70;99.90
44900;DHT22;30628;51.188;6.770;2022-10-16T02:52:39;14.70;99.90
44900;DHT22;30628;51.188;6.770;2022-10-16T02:55:06;14.80;99.90
44900;DHT22;30628;51.188;6.770;2022-10-16T02:57:32;14.70;99.90
44900;DHT22;30628;51.188;6.770;2022-10-16T02:59:58;14.80;99.90
44900;DHT22;30628;51.188;6.770;2022-10-16T03:02:25;14.80;99.90
44900;DHT22;30628;51.188;6.770;2022-10-16T03:04:51;14.80;99.90
44900;DHT22;30628;51.188;6.770;2022-10-16T03:07:17;14.80;99.90
44900;DHT22;30628;51.188;6.770;2022-10-16T03:09:43;14.80;99.90
44900;DHT22;30628;51.188;6.770;2022-10-16T03:12:09;14.80;99.90
44900;DHT22;30628;51.188;6.770;2022-10-16T03:14:37;14.70;99.90
44900;DHT22;30628;51.188;6.770;2022-10-16T03:17:06;14.70;99.90
44900;DHT22;30628;51.188;6.770;2022-10-16T03:19:32;14.70;99.90
44900;DHT22;30628;51.188;6.770;2022-10-16T03:21:58;14.70;99.90
44900;DHT22;30628;51.188;6.770;2022-10-16T03:24:24;14.70;99.90
44900;DHT22;30628;51.188;6.770;2022-10-16T03:26:50;14.70;99.90
44900;DHT22;30628;51.188;6.770;2022-10-16T03:29:16;14.70;99.90
44900;DHT22;30628;51.188;6.770;2022-10-16T03:31:43;14.70;99.90
44900;DHT22;30628;51.188;6.770;2022-10-16T03:34:09;14.70;99.90
44900;DHT22;30628;51.188;6.770;2022-10-16T03:36:35;14.70;99.90
44900;DHT22;30628;51.188;6.770;2022-10-16T03:39:01;14.70;99.90
44900;DHT22;30628;51.188;6.770;2022-10-16T03:41:28;14.70;99.90
44900;DHT22;30628;51.188;6.770;2022-10-16T03:43:54;14.70;99.90
44900;DHT22;30628;51.188;6.770;2022-10-16T03:46:20;14.70;99.90
44900;DHT22;30628;51.188;6.770;2022-10-16T03:48:46;14.70;99.90
44900;DHT22;30628;51.188;6.770;2022-10-16T03:51:12;14.70;99.90
44900;DHT22;30628;51.188;6.770;2022-10-16T03:53:38;14.60;99.90
44900;DHT22;30628;51.188;6.770;2022-10-16T03:56:05;14.60;99.90
44900;DHT22;30628;51.188;6.770;2022-10-16T03:58:31;14.60;99.90
44900;DHT22;30628;51.188;6.770;2022-10-16T04:00:57;14.60;99.90
44900;DHT22;30628;51.188;6.770;2022-10-16T04:03:24;14.50;99.90
44900;DHT22;30628;51.188;6.770;2022-10-16T04:05:50;14.60;99.90
44900;DHT22;30628;51.188;6.770;2022-10-16T04:08:16;14.60;99.90
44900;DHT22;30628;51.188;6.770;2022-10-16T04:10:43;14.50;99.90
44900;DHT22;30628;51.188;6.770;2022-10-16T04:13:10;14.50;99.90
44900;DHT22;30628;51.188;6.770;2022-10-16T04:15:36;14.80;99.90
44900;DHT22;30628;51.188;6.770;2022-10-16T04:18:02;14.50;99.90
44900;DHT22;30628;51.188;6.770;2022-10-16T04:20:29;14.50;99.90
44900;DHT22;30628;51.188;6.770;2022-10-16T04:22:55;14.50;99.90
44900;DHT22;30628;51.188;6.770;2022-10-16T04:25:22;14.50;99.90
44900;DHT22;30628;51.188;6.770;2022-10-16T04:27:48;14.50;99.90
44900;DHT22;30628;51.188;6.770;2022-10-16T04:30:14;14.50;99.90
44900;DHT22;30628;51.188;6.770;2022-10-16T04:32:40;14.40;99.90
44900;DHT22;30628;51.188;6.770;2022-10-16T04:35:07;14.40;99.90
44900;DHT22;30628;51.188;6.770;2022-10-16T04:37:33;14.40;99.90
44900;DHT22;30628;51.188;6.770;2022-10-16T04:39:59;14.40;99.90
44900;DHT22;30628;51.188;6.770;2022-10-16T04:42:25;14.40;99.90
44900;DHT22;30628;51.188;6.770;2022-10-16T04:44:52;14.40;99.90
44900;DHT22;30628;51.188;6.770;2022-10-16T04:47:18;14.30;99.90
44900;DHT22;30628;51.188;6.770;2022-10-16T04:49:44;14.40;99.90
44900;DHT22;30628;51.188;6.770;2022-10-16T04:52:10;14.30;99.90
44900;DHT22;30628;51.188;6.770;2022-10-16T04:54:36;14.40;99.90
44900;DHT22;30628;51.188;6.770;2022-10-16T04:57:02;14.40;99.90
44900;DHT22;30628;51.188;6.770;2022-10-16T04:59:30;14.30;99.90
44900;DHT22;30628;51.188;6.770;2022-10-16T05:01:56;14.40;99.90
44900;DHT22;30628;51.188;6.770;2022-10-16T05:04:22;14.40;99.90
44900;DHT22;30628;51.188;6.770;2022-10-16T05:06:49;14.40;99.90
44900;DHT22;30628;51.188;6.770;2022-10-16T05:09:15;14.50;99.90
44900;DHT22;30628;51.188;6.770;2022-10-16T05:11:41;14.40;99.90
44900;DHT22;30628;51.188;6.770;2022-10-16T05:14:07;14.40;99.90
44900;DHT22;30628;51.188;6.770;2022-10-16T05:16:33;14.40;99.90
44900;DHT22;30628;51.188;6.770;2022-10-16T05:19:00;14.40;99.90
44900;DHT22;30628;51.188;6.770;2022-10-16T05:21:26;14.40;99.90
44900;DHT22;30628;51.188;6.770;2022-10-16T05:23:53;14.40;99.90
44900;DHT22;30628;51.188;6.770;2022-10-16T05:26:20;14.40;99.90
44900;DHT22;30628;51.188;6.770;2022-10-16T05:28:46;14.60;99.90
44900;DHT22;30628;51.188;6.770;2022-10-16T05:31:12;14.50;99.90
44900;DHT22;30628;51.188;6.770;2022-10-16T05:33:39;14.50;99.90
44900;DHT22;30628;51.188;6.770;2022-10-16T05:36:07;14.30;99.90
44900;DHT22;30628;51.188;6.770;2022-10-16T05:38:37;14.30;99.90
44900;DHT22;30628;51.188;6.770;2022-10-16T05:41:05;14.30;99.90
44900;DHT22;30628;51.188;6.770;2022-10-16T05:43:32;14.30;99.90
44900;DHT22;30628;51.188;6.770;2022-10-16T05:46:03;14.20;99.90
44900;DHT22;30628;51.188;6.770;2022-10-16T05:48:30;14.20;99.90
44900;DHT22;30628;51.188;6.770;2022-10-16T05:51:07;14.20;99.90
44900;DHT22;30628;51.188;6.770;2022-10-16T05:53:36;14.30;99.90
44900;DHT22;30628;51.188;6.770;2022-10-16T05:56:03;14.30;99.90
44900;DHT22;30628;51.188;6.770;2022-10-16T05:58:31;14.20;99.90
44900;DHT22;30628;51.188;6.770;2022-10-16T06:01:00;14.70;99.90
44900;DHT22;30628;51.188;6.770;2022-10-16T06:03:27;14.30;99.90
44900;DHT22;30628;51.188;6.770;2022-10-16T06:05:53;14.30;99.90
44900;DHT22;30628;51.188;6.770;2022-10-16T06:08:21;14.30;99.90
44900;DHT22;30628;51.188;6.770;2022-10-16T06:10:48;14.30;99.90
44900;DHT22;30628;51.188;6.770;2022-10-16T06:13:15;14.30;99.90
44900;DHT22;30628;51.188;6.770;2022-10-16T06:15:42;14.30;99.90
44900;DHT22;30628;51.188;6.770;2022-10-16T06:18:09;14.40;99.90
44900;DHT22;30628;51.188;6.770;2022-10-16T06:20:36;14.30;99.90
44900;DHT22;30628;51.188;6.770;2022-10-16T06:23:03;14.30;99.90
44900;DHT22;30628;51.188;6.770;2022-10-16T06:25:31;14.30;99.90
44900;DHT22;30628;51.188;6.770;2022-10-16T06:27:57;14.30;99.90
44900;DHT22;30628;51.188;6.770;2022-10-16T06:30:23;14.30;99.90
44900;DHT22;30628;51.188;6.770;2022-10-16T06:32:50;14.30;99.90
44900;DHT22;30628;51.188;6.770;2022-10-16T06:35:18;14.30;99.90
44900;DHT22;30628;51.188;6.770;2022-10-16T06:37:44;14.20;99.90
44900;DHT22;30628;51.188;6.770;2022-10-16T06:40:10;14.50;99.90
44900;DHT22;30628;51.188;6.770;2022-10-16T06:42:36;14.30;99.90
44900;DHT22;30628;51.188;6.770;2022-10-16T06:45:03;14.30;99.90
44900;DHT22;30628;51.188;6.770;2022-10-16T06:47:29;14.40;99.90
44900;DHT22;30628;51.188;6.770;2022-10-16T06:49:55;14.50;99.90
44900;DHT22;30628;51.188;6.770;2022-10-16T06:52:22;14.60;99.90
44900;DHT22;30628;51.188;6.770;2022-10-16T06:54:49;14.50;99.90
44900;DHT22;30628;51.188;6.770;2022-10-16T06:57:15;14.50;99.90
44900;DHT22;30628;51.188;6.770;2022-10-16T06:59:42;14.60;99.90
44900;DHT22;30628;51.188;6.770;2022-10-16T07:02:08;14.60;99.90
44900;DHT22;30628;51.188;6.770;2022-10-16T07:04:36;14.70;99.90
44900;DHT22;30628;51.188;6.770;2022-10-16T07:07:02;14.70;99.90
44900;DHT22;30628;51.188;6.770;2022-10-16T07:09:28;14.70;99.90
44900;DHT22;30628;51.188;6.770;2022-10-16T07:11:55;14.70;99.90
44900;DHT22;30628;51.188;6.770;2022-10-16T07:14:21;14.70;99.90
44900;DHT22;30628;51.188;6.770;2022-10-16T07:16:48;14.80;99.90
44900;DHT22;30628;51.188;6.770;2022-10-16T07:19:14;14.70;99.90
44900;DHT22;30628;51.188;6.770;2022-10-16T07:21:43;14.60;99.90
44900;DHT22;30628;51.188;6.770;2022-10-16T07:24:15;14.70;99.90
44900;DHT22;30628;51.188;6.770;2022-10-16T07:26:45;14.70;99.90
44900;DHT22;30628;51.188;6.770;2022-10-16T07:29:18;14.70;99.90
44900;DHT22;30628;51.188;6.770;2022-10-16T07:32:14;14.80;99.90
44900;DHT22;30628;51.188;6.770;2022-10-16T07:34:41;14.80;99.90
44900;DHT22;30628;51.188;6.770;2022-10-16T07:37:07;14.70;99.90
44900;DHT22;30628;51.188;6.770;2022-10-16T07:39:34;14.80;99.90
44900;DHT22;30628;51.188;6.770;2022-10-16T07:42:00;14.70;99.90
44900;DHT22;30628;51.188;6.770;2022-10-16T07:44:26;14.70;99.90
44900;DHT22;30628;51.188;6.770;2022-10-16T07:46:52;14.80;99.90
44900;DHT22;30628;51.188;6.770;2022-10-16T07:49:18;14.90;99.90
44900;DHT22;30628;51.188;6.770;2022-10-16T07:51:44;15.00;99.90
44900;DHT22;30628;51.188;6.770;2022-10-16T07:54:10;15.00;99.90
44900;DHT22;30628;51.188;6.770;2022-10-16T07:56:37;15.00;99.90
44900;DHT22;30628;51.188;6.770;2022-10-16T07:59:03;15.00;99.90
44900;DHT22;30628;51.188;6.770;2022-10-16T08:01:29;15.00;99.90
44900;DHT22;30628;51.188;6.770;2022-10-16T08:03:55;15.00;99.90
44900;DHT22;30628;51.188;6.770;2022-10-16T08:06:22;15.00;99.90
44900;DHT22;30628;51.188;6.770;2022-10-16T08:08:48;15.30;99.90
44900;DHT22;30628;51.188;6.770;2022-10-16T08:11:14;15.10;99.90
44900;DHT22;30628;51.188;6.770;2022-10-16T08:13:41;15.10;99.90
44900;DHT22;30628;51.188;6.770;2022-10-16T08:16:08;15.20;99.90
44900;DHT22;30628;51.188;6.770;2022-10-16T08:18:37;15.10;99.90
44900;DHT22;30628;51.188;6.770;2022-10-16T08:21:04;15.20;99.90
44900;DHT22;30628;51.188;6.770;2022-10-16T08:23:32;15.20;99.90
44900;DHT22;30628;51.188;6.770;2022-10-16T08:26:03;15.20;99.90
44900;DHT22;30628;51.188;6.770;2022-10-16T08:28:29;15.30;99.90
44900;DHT22;30628;51.188;6.770;2022-10-16T08:30:56;15.30;99.90
44900;DHT22;30628;51.188;6.770;2022-10-16T08:33:24;15.30;99.90
44900;DHT22;30628;51.188;6.770;2022-10-16T08:35:52;15.40;99.90
44900;DHT22;30628;51.188;6.770;2022-10-16T08:38:19;15.40;99.90
44900;DHT22;30628;51.188;6.770;2022-10-16T08:40:45;15.40;99.90
44900;DHT22;30628;51.188;6.770;2022-10-16T08:48:51;15.50;99.90
44900;DHT22;30628;51.188;6.770;2022-10-16T08:51:29;15.50;99.90
44900;DHT22;30628;51.188;6.770;2022-10-16T08:56:30;15.60;99.90
44900;DHT22;30628;51.188;6.770;2022-10-16T08:58:58;15.60;99.90
44900;DHT22;30628;51.188;6.770;2022-10-16T09:01:37;15.60;99.90
44900;DHT22;30628;51.188;6.770;2022-10-16T09:04:30;15.70;99.90
44900;DHT22;30628;51.188;6.770;2022-10-16T09:07:12;15.70;99.90
44900;DHT22;30628;51.188;6.770;2022-10-16T09:12:53;15.80;99.90
44900;DHT22;30628;51.188;6.770;2022-10-16T09:23:41;16.00;99.90
44900;DHT22;30628;51.188;6.770;2022-10-16T09:26:13;16.10;99.90
44900;DHT22;30628;51.188;6.770;2022-10-16T09:28:40;16.20;99.90
44900;DHT22;30628;51.188;6.770;2022-10-16T09:31:17;16.20;99.90
44900;DHT22;30628;51.188;6.770;2022-10-16T09:33:47;16.20;99.90
44900;DHT22;30628;51.188;6.770;2022-10-16T09:36:14;16.20;99.90
44900;DHT22;30628;51.188;6.770;2022-10-16T09:38:40;16.30;99.90
44900;DHT22;30628;51.188;6.770;2022-10-16T09:41:21;16.40;99.90
44900;DHT22;30628;51.188;6.770;2022-10-16T09:43:57;16.40;99.90
44900;DHT22;30628;51.188;6.770;2022-10-16T09:46:30;16.40;99.90
44900;DHT22;30628;51.188;6.770;2022-10-16T09:51:32;16.50;99.90
44900;DHT22;30628;51.188;6.770;2022-10-16T09:54:01;16.50;99.90
44900;DHT22;30628;51.188;6.770;2022-10-16T09:56:33;16.50;99.90
44900;DHT22;30628;51.188;6.770;2022-10-16T09:59:08;16.50;99.90
44900;DHT22;30628;51.188;6.770;2022-10-16T10:01:41;16.50;99.90
44900;DHT22;30628;51.188;6.770;2022-10-16T10:04:09;16.50;99.90
44900;DHT22;30628;51.188;6.770;2022-10-16T10:06:40;16.60;99.90
44900;DHT22;30628;51.188;6.770;2022-10-16T10:11:51;16.50;99.90
44900;DHT22;30628;51.188;6.770;2022-10-16T10:14:38;16.50;99.90
44900;DHT22;30628;51.188;6.770;2022-10-16T10:19:48;16.50;99.90
44900;DHT22;30628;51.188;6.770;2022-10-16T10:30:39;16.60;99.90
44900;DHT22;30628;51.188;6.770;2022-10-16T10:36:02;16.60;99.90
44900;DHT22;30628;51.188;6.770;2022-10-16T10:42:02;16.60;99.90
44900;DHT22;30628;51.188;6.770;2022-10-16T10:44:16;16.60;99.90
44900;DHT22;30628;51.188;6.770;2022-10-16T10:46:50;16.60;99.90
44900;DHT22;30628;51.188;6.770;2022-10-16T10:49:49;16.60;99.90
44900;DHT22;30628;51.188;6.770;2022-10-16T10:52:25;16.70;99.90
44900;DHT22;30628;51.188;6.770;2022-10-16T11:01:42;16.70;99.90
44900;DHT22;30628;51.188;6.770;2022-10-16T11:04:27;16.70;99.90
44900;DHT22;30628;51.188;6.770;2022-10-16T11:09:33;16.80;99.90
44900;DHT22;30628;51.188;6.770;2022-10-16T11:12:11;16.80;99.90
44900;DHT22;30628;51.188;6.770;2022-10-16T11:15:11;16.80;99.90
44900;DHT22;30628;51.188;6.770;2022-10-16T11:17:39;16.80;99.90
44900;DHT22;30628;51.188;6.770;2022-10-16T11:20:20;16.90;99.90
44900;DHT22;30628;51.188;6.770;2022-10-16T11:25:31;16.90;99.90
44900;DHT22;30628;51.188;6.770;2022-10-16T11:30:49;17.10;99.90
44900;DHT22;30628;51.188;6.770;2022-10-16T11:38:50;17.20;99.90
44900;DHT22;30628;51.188;6.770;2022-10-16T11:47:07;17.10;99.90
44900;DHT22;30628;51.188;6.770;2022-10-16T11:49:36;17.20;99.90
44900;DHT22;30628;51.188;6.770;2022-10-16T11:52:19;17.10;99.90
44900;DHT22;30628;51.188;6.770;2022-10-16T11:54:56;17.20;99.90
44900;DHT22;30628;51.188;6.770;2022-10-16T11:57:29;17.20;99.90
44900;DHT22;30628;51.188;6.770;2022-10-16T11:59:58;17.30;99.90
44900;DHT22;30628;51.188;6.770;2022-10-16T12:02:45;17.30;99.90
44900;DHT22;30628;51.188;6.770;2022-10-16T12:05:35;17.40;99.90
44900;DHT22;30628;51.188;6.770;2022-10-16T12:08:10;17.40;99.90
44900;DHT22;30628;51.188;6.770;2022-10-16T12:10:38;17.30;99.90
44900;DHT22;30628;51.188;6.770;2022-10-16T12:15:50;17.50;99.90
44900;DHT22;30628;51.188;6.770;2022-10-16T12:18:24;17.40;99.90
44900;DHT22;30628;51.188;6.770;2022-10-16T12:20:57;17.50;99.90
44900;DHT22;30628;51.188;6.770;2022-10-16T12:23:51;17.50;99.90
44900;DHT22;30628;51.188;6.770;2022-10-16T12:26:29;17.50;99.90
44900;DHT22;30628;51.188;6.770;2022-10-16T12:29:14;17.50;99.90
44900;DHT22;30628;51.188;6.770;2022-10-16T12:31:46;17.50;99.90
44900;DHT22;30628;51.188;6.770;2022-10-16T12:34:38;17.50;99.90
44900;DHT22;30628;51.188;6.770;2022-10-16T12:37:18;17.50;99.90
44900;DHT22;30628;51.188;6.770;2022-10-16T12:39:47;17.50;99.90
44900;DHT22;30628;51.188;6.770;2022-10-16T12:44:54;17.70;99.90
44900;DHT22;30628;51.188;6.770;2022-10-16T12:47:24;17.70;99.90
44900;DHT22;30628;51.188;6.770;2022-10-16T12:49:53;17.80;99.90
44900;DHT22;30628;51.188;6.770;2022-10-16T12:52:34;17.80;99.90
44900;DHT22;30628;51.188;6.770;2022-10-16T12:55:00;17.90;99.90
44900;DHT22;30628;51.188;6.770;2022-10-16T13:03:25;17.90;99.90
44900;DHT22;30628;51.188;6.770;2022-10-16T13:19:44;17.90;99.90
44900;DHT22;30628;51.188;6.770;2022-10-16T13:22:40;18.00;99.90
44900;DHT22;30628;51.188;6.770;2022-10-16T13:25:30;18.00;99.90
44900;DHT22;30628;51.188;6.770;2022-10-16T13:28:03;18.00;99.90
44900;DHT22;30628;51.188;6.770;2022-10-16T13:30:40;18.00;99.90
44900;DHT22;30628;51.188;6.770;2022-10-16T13:33:16;18.00;99.90
44900;DHT22;30628;51.188;6.770;2022-10-16T13:35:51;18.00;99.90
44900;DHT22;30628;51.188;6.770;2022-10-16T13:38:21;18.10;99.90
44900;DHT22;30628;51.188;6.770;2022-10-16T13:41:05;18.20;99.90
44900;DHT22;30628;51.188;6.770;2022-10-16T13:43:35;18.20;99.90
44900;DHT22;30628;51.188;6.770;2022-10-16T13:46:11;18.20;99.90
44900;DHT22;30628;51.188;6.770;2022-10-16T13:48:38;18.20;99.90
44900;DHT22;30628;51.188;6.770;2022-10-16T13:51:14;18.20;99.90
44900;DHT22;30628;51.188;6.770;2022-10-16T13:53:41;18.30;99.90
44900;DHT22;30628;51.188;6.770;2022-10-16T13:56:16;18.20;99.90
44900;DHT22;30628;51.188;6.770;2022-10-16T13:58:44;18.30;99.90
44900;DHT22;30628;51.188;6.770;2022-10-16T14:01:19;18.30;99.90
44900;DHT22;30628;51.188;6.770;2022-10-16T14:03:47;18.30;99.90
44900;DHT22;30628;51.188;6.770;2022-10-16T14:06:21;18.30;99.90
44900;DHT22;30628;51.188;6.770;2022-10-16T14:08:58;18.30;99.90
44900;DHT22;30628;51.188;6.770;2022-10-16T14:11:25;18.30;99.90
44900;DHT22;30628;51.188;6.770;2022-10-16T14:13:52;18.20;99.90
44900;DHT22;30628;51.188;6.770;2022-10-16T14:16:22;18.20;99.90
44900;DHT22;30628;51.188;6.770;2022-10-16T14:19:03;18.20;99.90
44900;DHT22;30628;51.188;6.770;2022-10-16T14:21:33;18.20;99.90
44900;DHT22;30628;51.188;6.770;2022-10-16T14:24:13;18.20;99.90
44900;DHT22;30628;51.188;6.770;2022-10-16T14:26:47;18.20;99.90
44900;DHT22;30628;51.188;6.770;2022-10-16T14:29:19;18.30;99.90
44900;DHT22;30628;51.188;6.770;2022-10-16T14:31:59;18.40;99.90
44900;DHT22;30628;51.188;6.770;2022-10-16T14:34:34;18.30;99.90
44900;DHT22;30628;51.188;6.770;2022-10-16T14:37:09;18.30;99.90
44900;DHT22;30628;51.188;6.770;2022-10-16T14:39:40;18.30;99.90
44900;DHT22;30628;51.188;6.770;2022-10-16T14:42:22;18.30;99.90
44900;DHT22;30628;51.188;6.770;2022-10-16T14:44:51;18.30;99.90
44900;DHT22;30628;51.188;6.770;2022-10-16T14:47:26;18.20;99.90
44900;DHT22;30628;51.188;6.770;2022-10-16T14:49:54;18.10;99.90
44900;DHT22;30628;51.188;6.770;2022-10-16T14:52:24;18.10;99.90
44900;DHT22;30628;51.188;6.770;2022-10-16T14:54:51;18.10;99.90
44900;DHT22;30628;51.188;6.770;2022-10-16T14:57:26;18.10;99.90
44900;DHT22;30628;51.188;6.770;2022-10-16T14:59:53;18.10;99.90
44900;DHT22;30628;51.188;6.770;2022-10-16T15:02:33;18.10;99.90
44900;DHT22;30628;51.188;6.770;2022-10-16T15:05:27;18.00;99.90
44900;DHT22;30628;51.188;6.770;2022-10-16T15:07:53;18.10;99.90
44900;DHT22;30628;51.188;6.770;2022-10-16T15:10:21;18.00;99.90
44900;DHT22;30628;51.188;6.770;2022-10-16T15:12:48;18.00;99.90
44900;DHT22;30628;51.188;6.770;2022-10-16T15:17:50;17.90;99.90
44900;DHT22;30628;51.188;6.770;2022-10-16T15:20:20;18.00;99.90
44900;DHT22;30628;51.188;6.770;2022-10-16T15:22:46;17.90;99.90
44900;DHT22;30628;51.188;6.770;2022-10-16T15:25:36;17.90;99.90
44900;DHT22;30628;51.188;6.770;2022-10-16T15:28:04;17.90;99.90
44900;DHT22;30628;51.188;6.770;2022-10-16T15:30:30;17.80;99.90
44900;DHT22;30628;51.188;6.770;2022-10-16T15:32:57;17.80;99.90
44900;DHT22;30628;51.188;6.770;2022-10-16T15:35:23;17.80;99.90
44900;DHT22;30628;51.188;6.770;2022-10-16T15:37:49;17.80;99.90
44900;DHT22;30628;51.188;6.770;2022-10-16T15:40:17;17.80;99.90
44900;DHT22;30628;51.188;6.770;2022-10-16T15:42:46;17.80;99.90
44900;DHT22;30628;51.188;6.770;2022-10-16T15:45:13;17.80;99.90
44900;DHT22;30628;51.188;6.770;2022-10-16T15:47:41;17.80;99.90
44900;DHT22;30628;51.188;6.770;2022-10-16T15:50:10;17.80;99.90
44900;DHT22;30628;51.188;6.770;2022-10-16T15:52:38;17.80;99.90
44900;DHT22;30628;51.188;6.770;2022-10-16T15:55:07;17.80;99.90
44900;DHT22;30628;51.188;6.770;2022-10-16T15:57:33;17.70;99.90
44900;DHT22;30628;51.188;6.770;2022-10-16T16:00:00;17.70;99.90
44900;DHT22;30628;51.188;6.770;2022-10-16T16:02:26;17.70;99.90
44900;DHT22;30628;51.188;6.770;2022-10-16T16:04:52;17.70;99.90
44900;DHT22;30628;51.188;6.770;2022-10-16T16:07:18;17.80;99.90
44900;DHT22;30628;51.188;6.770;2022-10-16T16:09:45;17.70;99.90
44900;DHT22;30628;51.188;6.770;2022-10-16T16:12:11;17.70;99.90
44900;DHT22;30628;51.188;6.770;2022-10-16T16:14:37;17.70;99.90
44900;DHT22;30628;51.188;6.770;2022-10-16T16:17:03;17.70;99.90
44900;DHT22;30628;51.188;6.770;2022-10-16T16:19:29;17.70;99.90
44900;DHT22;30628;51.188;6.770;2022-10-16T16:21:55;17.70;99.90
44900;DHT22;30628;51.188;6.770;2022-10-16T16:24:21;17.70;99.90
44900;DHT22;30628;51.188;6.770;2022-10-16T16:26:47;17.70;99.90
44900;DHT22;30628;51.188;6.770;2022-10-16T16:29:15;17.60;99.90
44900;DHT22;30628;51.188;6.770;2022-10-16T16:31:42;17.60;99.90
44900;DHT22;30628;51.188;6.770;2022-10-16T16:34:09;17.60;99.90
44900;DHT22;30628;51.188;6.770;2022-10-16T16:36:35;17.60;99.90
44900;DHT22;30628;51.188;6.770;2022-10-16T16:39:02;17.60;99.90
44900;DHT22;30628;51.188;6.770;2022-10-16T16:41:29;17.50;99.90
44900;DHT22;30628;51.188;6.770;2022-10-16T16:44:04;17.50;99.90
44900;DHT22;30628;51.188;6.770;2022-10-16T16:46:32;17.60;99.90
44900;DHT22;30628;51.188;6.770;2022-10-16T16:48:59;17.50;99.90
44900;DHT22;30628;51.188;6.770;2022-10-16T16:51:25;17.50;99.90
44900;DHT22;30628;51.188;6.770;2022-10-16T16:53:53;17.50;99.90
44900;DHT22;30628;51.188;6.770;2022-10-16T16:56:21;17.50;99.90
44900;DHT22;30628;51.188;6.770;2022-10-16T16:58:52;17.50;99.90
44900;DHT22;30628;51.188;6.770;2022-10-16T17:01:19;17.50;99.90
44900;DHT22;30628;51.188;6.770;2022-10-16T17:03:46;17.50;99.90
44900;DHT22;30628;51.188;6.770;2022-10-16T17:06:15;17.40;99.90
44900;DHT22;30628;51.188;6.770;2022-10-16T17:08:42;17.40;99.90
44900;DHT22;30628;51.188;6.770;2022-10-16T17:11:17;17.40;99.90
44900;DHT22;30628;51.188;6.770;2022-10-16T17:13:43;17.30;99.90
44900;DHT22;30628;51.188;6.770;2022-10-16T17:16:10;17.30;99.90
44900;DHT22;30628;51.188;6.770;2022-10-16T17:18:36;17.30;99.90
44900;DHT22;30628;51.188;6.770;2022-10-16T17:21:05;17.30;99.90
44900;DHT22;30628;51.188;6.770;2022-10-16T17:23:32;17.30;99.90
44900;DHT22;30628;51.188;6.770;2022-10-16T17:26:05;17.40;99.90
44900;DHT22;30628;51.188;6.770;2022-10-16T17:28:32;17.30;99.90
44900;DHT22;30628;51.188;6.770;2022-10-16T17:31:13;17.20;99.90
44900;DHT22;30628;51.188;6.770;2022-10-16T17:33:40;17.30;99.90